createdAt,value
2018-09-20T00:01:01.266Z,14.40
2018-09-20T00:03:30.738Z,14.40
2018-09-20T00:06:00.392Z,14.40
2018-09-20T00:08:29.623Z,14.40
2018-09-20T00:10:59.344Z,14.30
2018-09-20T00:13:28.606Z,14.30
2018-09-20T00:15:58.040Z,14.40
2018-09-20T00:18:27.524Z,14.30
2018-09-20T00:20:56.876Z,14.20
2018-09-20T00:23:26.183Z,14.10
2018-09-20T00:25:55.836Z,14.00
2018-09-20T00:28:25.054Z,13.80
2018-09-20T00:30:54.040Z,13.50
2018-09-20T00:33:23.378Z,13.30
2018-09-20T00:35:52.546Z,13.20
2018-09-20T00:38:22.025Z,13.40
2018-09-20T00:40:51.733Z,13.50
2018-09-20T00:43:20.765Z,13.60
2018-09-20T00:45:50.224Z,13.70
2018-09-20T00:48:19.447Z,13.50
2018-09-20T00:50:49.894Z,13.40
2018-09-20T00:53:19.171Z,13.30
2018-09-20T00:55:48.588Z,13.40
2018-09-20T00:58:18.104Z,13.50
2018-09-20T01:00:47.733Z,13.70
2018-09-20T01:03:17.224Z,13.80
2018-09-20T01:05:46.403Z,13.90
2018-09-20T01:08:16.032Z,13.90
2018-09-20T01:10:45.390Z,13.80
2018-09-20T01:13:14.728Z,13.70
2018-09-20T01:15:44.338Z,13.60
2018-09-20T01:18:13.701Z,13.50
2018-09-20T01:20:43.269Z,13.40
2018-09-20T01:23:12.748Z,13.40
2018-09-20T01:25:42.132Z,13.40
2018-09-20T01:28:11.703Z,13.50
2018-09-20T01:30:41.049Z,13.50
2018-09-20T01:33:10.412Z,13.60
2018-09-20T01:35:39.828Z,13.70
2018-09-20T01:38:09.279Z,13.70
2018-09-20T01:40:38.728Z,13.60
2018-09-20T01:43:07.726Z,13.60
2018-09-20T01:45:36.731Z,13.60
2018-09-20T01:48:05.828Z,13.50
2018-09-20T01:50:35.331Z,13.50
2018-09-20T01:53:04.397Z,13.40
2018-09-20T01:55:33.647Z,13.30
2018-09-20T01:58:02.660Z,13.10
2018-09-20T02:00:32.135Z,13.00
2018-09-20T02:03:01.786Z,12.80
2018-09-20T02:05:31.001Z,12.80
2018-09-20T02:08:00.338Z,12.80
2018-09-20T02:10:29.857Z,12.70
2018-09-20T02:12:59.104Z,12.60
2018-09-20T02:15:28.480Z,12.50
2018-09-20T02:17:57.965Z,12.70
2018-09-20T02:20:27.472Z,12.90
2018-09-20T02:22:56.929Z,13.10
2018-09-20T02:25:26.150Z,13.40
2018-09-20T02:27:55.835Z,13.50
2018-09-20T02:30:25.060Z,13.50
2018-09-20T02:32:54.577Z,13.40
2018-09-20T02:35:23.988Z,13.30
2018-09-20T02:37:53.362Z,13.20
2018-09-20T02:40:22.978Z,13.00
2018-09-20T02:42:51.925Z,12.80
2018-09-20T02:45:21.497Z,12.60
2018-09-20T02:47:50.853Z,12.60
2018-09-20T02:50:20.739Z,12.50
2018-09-20T02:52:50.062Z,12.50
2018-09-20T02:55:19.530Z,12.40
2018-09-20T02:57:49.068Z,12.30
2018-09-20T03:00:18.470Z,12.20
2018-09-20T03:02:47.875Z,12.40
2018-09-20T03:05:17.204Z,12.70
2018-09-20T03:07:46.782Z,12.80
2018-09-20T03:10:16.315Z,12.80
2018-09-20T03:12:45.755Z,12.90
2018-09-20T03:15:14.861Z,13.00
2018-09-20T03:17:44.245Z,13.00
2018-09-20T03:20:13.653Z,12.90
2018-09-20T03:22:43.185Z,12.90
2018-09-20T03:25:12.709Z,12.80
2018-09-20T03:27:41.983Z,12.80
2018-09-20T03:30:11.340Z,12.70
2018-09-20T03:32:40.791Z,12.60
2018-09-20T03:35:09.806Z,12.60
2018-09-20T03:37:39.315Z,12.50
2018-09-20T03:40:08.744Z,12.40
2018-09-20T03:42:37.921Z,12.40
2018-09-20T03:45:07.329Z,12.40
2018-09-20T03:47:36.585Z,12.30
2018-09-20T03:50:06.729Z,12.10
2018-09-20T03:52:35.781Z,12.00
2018-09-20T03:55:05.171Z,12.00
2018-09-20T03:57:34.237Z,11.90
2018-09-20T04:00:03.565Z,12.00
2018-09-20T04:02:33.270Z,12.20
2018-09-20T04:05:02.450Z,12.50
2018-09-20T04:07:32.137Z,12.50
2018-09-20T04:10:01.784Z,12.30
2018-09-20T04:12:31.169Z,12.20
2018-09-20T04:15:00.827Z,12.20
2018-09-20T04:17:30.675Z,12.10
2018-09-20T04:19:59.956Z,12.30
2018-09-20T04:22:29.433Z,12.30
2018-09-20T04:24:58.724Z,12.40
2018-09-20T04:27:28.172Z,12.40
2018-09-20T04:29:57.839Z,12.40
2018-09-20T04:32:27.374Z,12.30
2018-09-20T04:34:56.755Z,12.20
2018-09-20T04:37:26.332Z,12.00
2018-09-20T04:39:55.794Z,11.90
2018-09-20T04:42:25.152Z,11.80
2018-09-20T04:44:54.736Z,11.90
2018-09-20T04:47:24.524Z,12.00
2018-09-20T04:49:53.821Z,12.10
2018-09-20T04:52:23.308Z,12.10
2018-09-20T04:54:52.873Z,12.00
2018-09-20T04:57:22.253Z,11.90
2018-09-20T04:59:51.669Z,11.80
2018-09-20T05:02:21.035Z,11.90
2018-09-20T05:04:50.037Z,11.90
2018-09-20T05:07:19.070Z,12.00
2018-09-20T05:09:48.492Z,12.20
2018-09-20T05:12:17.799Z,12.30
2018-09-20T05:14:46.750Z,12.30
2018-09-20T05:17:15.995Z,12.50
2018-09-20T05:19:45.665Z,12.70
2018-09-20T05:22:15.114Z,12.80
2018-09-20T05:24:44.721Z,12.90
2018-09-20T05:27:14.147Z,13.00
2018-09-20T05:29:43.856Z,13.00
2018-09-20T05:32:13.453Z,13.00
2018-09-20T05:34:43.382Z,12.90
2018-09-20T05:37:13.001Z,12.80
2018-09-20T05:39:42.841Z,12.80
2018-09-20T05:42:12.658Z,12.90
2018-09-20T05:44:42.467Z,12.90
2018-09-20T05:47:12.296Z,12.90
2018-09-20T05:49:41.930Z,12.90
2018-09-20T05:52:11.773Z,13.00
2018-09-20T05:54:41.389Z,13.10
2018-09-20T05:57:11.008Z,13.20
2018-09-20T05:59:40.788Z,13.40
2018-09-20T06:02:10.672Z,13.80
2018-09-20T06:04:40.318Z,14.10
2018-09-20T06:07:10.121Z,14.70
2018-09-20T06:09:40.423Z,15.40
2018-09-20T06:12:10.246Z,16.30
2018-09-20T06:14:39.957Z,17.30
2018-09-20T06:17:09.778Z,18.10
2018-09-20T06:19:39.579Z,19.00
2018-09-20T06:22:10.343Z,19.40
2018-09-20T06:24:40.438Z,20.00
2018-09-20T06:27:09.973Z,20.80
2018-09-20T06:29:39.636Z,20.80
2018-09-20T06:32:09.674Z,20.70
2018-09-20T06:34:39.529Z,20.40
2018-09-20T06:37:09.482Z,20.20
2018-09-20T06:39:39.111Z,20.30
2018-09-20T06:42:09.284Z,20.70
2018-09-20T06:44:39.009Z,20.90
2018-09-20T06:47:08.588Z,21.40
2018-09-20T06:49:38.313Z,21.70
2018-09-20T06:52:08.278Z,21.70
2018-09-20T06:54:37.950Z,22.00
2018-09-20T06:57:07.818Z,21.90
2018-09-20T06:59:37.265Z,22.00
2018-09-20T07:02:06.877Z,21.90
2018-09-20T07:04:36.271Z,22.60
2018-09-20T07:07:06.030Z,22.90
2018-09-20T07:09:35.424Z,23.50
2018-09-20T07:12:04.932Z,24.00
2018-09-20T07:14:34.483Z,24.60
2018-09-20T07:17:04.329Z,24.90
2018-09-20T07:19:34.035Z,25.30
2018-09-20T07:22:03.746Z,25.80
2018-09-20T07:24:33.638Z,25.90
2018-09-20T07:27:03.667Z,25.40
2018-09-20T07:29:33.373Z,24.80
2018-09-20T07:32:03.280Z,23.90
2018-09-20T07:34:33.281Z,23.50
2018-09-20T07:37:03.282Z,23.70
2018-09-20T07:39:32.833Z,24.40
2018-09-20T07:42:02.701Z,25.30
2018-09-20T07:44:32.317Z,25.80
2018-09-20T07:47:02.129Z,25.80
2018-09-20T07:49:32.049Z,25.50
2018-09-20T07:52:01.654Z,25.60
2018-09-20T07:54:31.505Z,25.80
2018-09-20T07:57:01.332Z,26.00
2018-09-20T07:59:30.955Z,25.80
2018-09-20T08:02:00.625Z,26.40
2018-09-20T08:04:30.315Z,27.70
2018-09-20T08:06:59.951Z,28.90
2018-09-20T08:09:29.619Z,29.00
2018-09-20T08:11:59.346Z,29.00
2018-09-20T08:14:29.042Z,28.70
2018-09-20T08:16:58.772Z,29.00
2018-09-20T08:19:28.795Z,27.90
2018-09-20T08:21:58.559Z,27.70
2018-09-20T08:24:28.202Z,28.10
2018-09-20T08:26:57.869Z,28.30
2018-09-20T08:29:27.577Z,27.60
2018-09-20T08:31:57.162Z,27.80
2018-09-20T08:34:26.587Z,28.40
2018-09-20T08:36:56.237Z,28.60
2018-09-20T08:39:25.688Z,28.80
2018-09-20T08:41:55.509Z,29.20
2018-09-20T08:44:25.198Z,29.10
2018-09-20T08:46:54.692Z,29.20
2018-09-20T08:49:24.342Z,29.10
2018-09-20T08:51:54.892Z,29.00
2018-09-20T08:54:24.633Z,29.00
2018-09-20T08:56:54.375Z,29.40
2018-09-20T08:59:24.248Z,29.80
2018-09-20T09:01:54.106Z,29.50
2018-09-20T09:04:23.951Z,29.70
2018-09-20T09:06:54.272Z,30.20
2018-09-20T09:09:23.882Z,30.60
2018-09-20T09:11:53.473Z,30.40
2018-09-20T09:14:23.217Z,30.20
2018-09-20T09:16:52.874Z,30.00
2018-09-20T09:19:23.515Z,30.40
2018-09-20T09:21:53.479Z,30.10
2018-09-20T09:24:23.015Z,30.70
2018-09-20T09:26:52.564Z,30.90
2018-09-20T09:29:22.327Z,30.30
2018-09-20T09:31:52.591Z,30.40
2018-09-20T09:34:22.307Z,31.20
2018-09-20T09:36:52.043Z,31.80
2018-09-20T09:39:21.829Z,31.90
2018-09-20T09:41:51.573Z,32.20
2018-09-20T09:44:21.360Z,32.40
2018-09-20T09:46:51.135Z,32.30
2018-09-20T09:49:20.775Z,32.20
2018-09-20T09:51:50.447Z,32.10
2018-09-20T09:54:20.319Z,32.40
2018-09-20T09:56:50.068Z,32.00
2018-09-20T09:59:19.506Z,31.80
2018-09-20T10:01:49.454Z,31.70
2018-09-20T10:04:19.386Z,31.90
2018-09-20T10:06:49.263Z,31.20
2018-09-20T10:09:18.989Z,31.20
2018-09-20T10:11:48.890Z,31.90
2018-09-20T10:14:18.530Z,32.90
2018-09-20T10:16:48.611Z,32.40
2018-09-20T10:19:18.454Z,31.90
2018-09-20T10:21:48.467Z,31.40
2018-09-20T10:24:18.025Z,31.40
2018-09-20T10:26:47.529Z,31.60
2018-09-20T10:29:17.207Z,31.40
2018-09-20T10:31:46.655Z,31.10
2018-09-20T10:34:16.124Z,31.30
2018-09-20T10:36:46.671Z,31.60
2018-09-20T10:39:16.289Z,31.60
2018-09-20T10:41:46.571Z,30.10
2018-09-20T10:44:16.481Z,30.40
2018-09-20T10:46:46.258Z,30.60
2018-09-20T10:49:15.855Z,30.00
2018-09-20T10:51:45.750Z,30.30
2018-09-20T10:54:15.512Z,30.90
2018-09-20T10:56:45.264Z,30.90
2018-09-20T10:59:14.918Z,30.60
2018-09-20T11:01:44.323Z,30.80
2018-09-20T11:04:14.101Z,31.10
2018-09-20T11:06:44.058Z,30.80
2018-09-20T11:09:14.157Z,31.00
2018-09-20T11:11:43.643Z,31.20
2018-09-20T11:14:13.153Z,31.40
2018-09-20T11:16:42.717Z,31.20
2018-09-20T11:19:12.673Z,31.70
2018-09-20T11:21:42.541Z,32.20
2018-09-20T11:24:12.287Z,32.20
2018-09-20T11:26:42.074Z,32.80
2018-09-20T11:29:11.784Z,32.50
2018-09-20T11:31:41.186Z,32.60
2018-09-20T11:34:11.564Z,32.20
2018-09-20T11:36:41.672Z,30.80
2018-09-20T11:39:13.907Z,30.10
2018-09-20T11:41:43.488Z,30.60
2018-09-20T11:44:13.046Z,30.90
2018-09-20T11:46:42.875Z,30.60
2018-09-20T11:49:12.365Z,31.10
2018-09-20T11:51:41.845Z,31.20
2018-09-20T11:54:11.659Z,31.70
2018-09-20T11:56:41.347Z,32.90
2018-09-20T11:59:11.291Z,33.70
2018-09-20T12:01:40.949Z,34.40
2018-09-20T12:04:10.813Z,34.10
2018-09-20T12:06:40.544Z,33.50
2018-09-20T12:09:10.273Z,33.40
2018-09-20T12:11:39.896Z,33.30
2018-09-20T12:14:09.478Z,33.60
2018-09-20T12:16:38.902Z,33.70
2018-09-20T12:19:39.423Z,33.70
2018-09-20T12:22:09.195Z,32.50
2018-09-20T12:24:38.945Z,32.10
2018-09-20T12:27:07.939Z,33.30
2018-09-20T12:29:37.577Z,33.10
2018-09-20T12:32:07.476Z,33.80
2018-09-20T12:34:36.733Z,33.90
2018-09-20T12:37:06.446Z,34.00
2018-09-20T12:39:36.485Z,33.80
2018-09-20T12:42:05.843Z,33.70
2018-09-20T12:44:35.501Z,33.60
2018-09-20T12:47:05.244Z,31.90
2018-09-20T12:49:34.654Z,31.40
2018-09-20T12:52:03.865Z,31.50
2018-09-20T12:54:34.667Z,31.40
2018-09-20T12:57:04.164Z,31.70
2018-09-20T12:59:33.740Z,32.10
2018-09-20T13:02:03.102Z,32.10
2018-09-20T13:04:32.910Z,32.20
2018-09-20T13:07:02.903Z,33.10
2018-09-20T13:09:33.139Z,33.30
2018-09-20T13:12:02.842Z,33.60
2018-09-20T13:14:32.521Z,32.60
2018-09-20T13:17:02.053Z,32.30
2018-09-20T13:19:31.801Z,32.80
2018-09-20T13:22:01.517Z,33.10
2018-09-20T13:24:31.866Z,33.60
2018-09-20T13:27:01.769Z,34.10
2018-09-20T13:29:31.453Z,34.50
2018-09-20T13:32:01.444Z,34.80
2018-09-20T13:34:31.735Z,34.80
2018-09-20T13:37:02.284Z,33.50
2018-09-20T13:39:31.809Z,32.80
2018-09-20T13:42:01.697Z,33.40
2018-09-20T13:44:31.298Z,34.10
2018-09-20T13:47:00.973Z,34.40
2018-09-20T13:49:30.838Z,33.80
2018-09-20T13:52:00.601Z,32.90
2018-09-20T13:54:30.285Z,31.90
2018-09-20T13:56:59.914Z,31.50
2018-09-20T13:59:29.576Z,31.70
2018-09-20T14:02:11.818Z,32.10
2018-09-20T14:04:41.481Z,32.80
2018-09-20T14:07:11.154Z,33.50
2018-09-20T14:09:40.904Z,32.80
2018-09-20T14:12:10.913Z,33.30
2018-09-20T14:14:40.518Z,34.40
2018-09-20T14:17:10.116Z,34.80
2018-09-20T14:19:40.001Z,34.40
2018-09-20T14:22:09.402Z,33.50
2018-09-20T14:24:39.189Z,32.20
2018-09-20T14:27:09.050Z,31.40
2018-09-20T14:29:38.777Z,30.70
2018-09-20T14:32:08.576Z,30.10
2018-09-20T14:34:38.286Z,29.90
2018-09-20T14:37:07.898Z,30.20
2018-09-20T14:39:37.897Z,31.30
2018-09-20T14:42:08.014Z,32.40
2018-09-20T14:44:38.461Z,32.60
2018-09-20T14:47:08.023Z,32.60
2018-09-20T14:49:42.082Z,32.70
2018-09-20T14:52:11.749Z,32.50
2018-09-20T14:54:41.326Z,32.40
2018-09-20T14:57:11.200Z,32.30
2018-09-20T14:59:40.721Z,32.30
2018-09-20T15:02:10.278Z,32.60
2018-09-20T15:04:39.988Z,32.90
2018-09-20T15:07:09.721Z,33.00
2018-09-20T15:09:43.007Z,33.20
2018-09-20T15:12:13.178Z,32.80
2018-09-20T15:14:43.222Z,31.70
2018-09-20T15:17:12.977Z,31.70
2018-09-20T15:19:44.723Z,32.00
2018-09-20T15:22:14.578Z,32.40
2018-09-20T15:24:44.355Z,32.10
2018-09-20T15:27:15.077Z,31.70
2018-09-20T15:29:44.883Z,31.60
2018-09-20T15:32:14.445Z,31.60
2018-09-20T15:34:46.910Z,31.50
2018-09-20T15:37:16.984Z,31.30
2018-09-20T15:39:46.882Z,31.30
2018-09-20T15:42:17.064Z,31.10
2018-09-20T15:44:46.906Z,30.80
2018-09-20T15:47:16.630Z,30.70
2018-09-20T15:49:46.404Z,30.70
2018-09-20T15:52:16.179Z,30.60
2018-09-20T15:54:45.894Z,30.50
2018-09-20T15:57:15.840Z,30.20
2018-09-20T15:59:45.420Z,29.60
2018-09-20T16:02:15.348Z,29.10
2018-09-20T16:04:45.712Z,28.80
2018-09-20T16:07:15.520Z,28.50
2018-09-20T16:09:46.109Z,28.50
2018-09-20T16:12:15.653Z,28.70
2018-09-20T16:14:45.373Z,28.70
2018-09-20T16:17:15.003Z,28.70
2018-09-20T16:19:44.714Z,28.40
2018-09-20T16:22:14.745Z,28.30
2018-09-20T16:24:44.500Z,28.40
2018-09-20T16:27:14.159Z,28.40
2018-09-20T16:30:07.815Z,28.30
2018-09-20T16:33:03.267Z,28.10
2018-09-20T16:36:11.703Z,27.90
2018-09-20T16:38:52.163Z,27.60
2018-09-20T16:41:28.837Z,27.30
2018-09-20T16:43:58.293Z,27.10
2018-09-20T16:46:28.359Z,26.80
2018-09-20T16:48:57.981Z,26.60
2018-09-20T16:51:27.647Z,26.50
2018-09-20T16:53:57.743Z,26.50
2018-09-20T16:56:27.176Z,26.40
2018-09-20T16:58:56.937Z,26.40
2018-09-20T17:01:26.340Z,26.40
2018-09-20T17:03:56.150Z,26.30
2018-09-20T17:06:30.517Z,26.20
2018-09-20T17:09:00.390Z,26.10
2018-09-20T17:11:30.121Z,25.80
2018-09-20T17:13:59.811Z,25.60
2018-09-20T17:16:29.682Z,25.30
2018-09-20T17:18:59.814Z,25.10
2018-09-20T17:21:29.541Z,24.80
2018-09-20T17:23:59.351Z,24.60
2018-09-20T17:26:29.621Z,24.70
2018-09-20T17:28:59.529Z,24.60
2018-09-20T17:31:29.138Z,24.60
2018-09-20T17:33:58.507Z,24.50
2018-09-20T17:36:28.822Z,24.40
2018-09-20T17:39:00.068Z,24.30
2018-09-20T17:41:32.689Z,24.10
2018-09-20T17:44:04.360Z,23.80
2018-09-20T17:46:33.986Z,23.70
2018-09-20T17:49:03.775Z,23.40
2018-09-20T17:51:34.419Z,23.20
2018-09-20T17:54:04.731Z,23.00
2018-09-20T17:56:34.929Z,22.90
2018-09-20T17:59:04.759Z,22.70
2018-09-20T18:01:34.385Z,22.60
2018-09-20T18:04:04.242Z,22.40
2018-09-20T18:06:33.817Z,22.20
2018-09-20T18:09:04.223Z,22.10
2018-09-20T18:11:33.929Z,22.00
2018-09-20T18:14:03.503Z,21.90
2018-09-20T18:16:33.242Z,21.80
2018-09-20T18:19:02.745Z,21.70
2018-09-20T18:21:32.303Z,21.50
2018-09-20T18:24:01.740Z,21.60
2018-09-20T18:26:31.615Z,21.50
2018-09-20T18:29:01.449Z,21.50
2018-09-20T18:31:31.172Z,21.30
2018-09-20T18:34:01.229Z,21.30
2018-09-20T18:36:30.903Z,21.20
2018-09-20T18:39:00.728Z,21.10
2018-09-20T18:41:30.246Z,21.00
2018-09-20T18:44:00.047Z,20.80
2018-09-20T18:46:29.759Z,20.60
2018-09-20T18:48:59.482Z,20.40
2018-09-20T18:51:29.090Z,20.40
2018-09-20T18:53:59.398Z,20.30
2018-09-20T18:56:28.981Z,20.20
2018-09-20T18:58:58.698Z,20.20
2018-09-20T19:01:28.327Z,20.10
2018-09-20T19:03:57.918Z,20.10
2018-09-20T19:06:27.631Z,20.00
2018-09-20T19:08:57.325Z,20.00
2018-09-20T19:11:27.073Z,19.90
2018-09-20T19:13:58.242Z,19.80
2018-09-20T19:16:28.184Z,19.50
2018-09-20T19:18:57.973Z,19.20
2018-09-20T19:21:27.794Z,19.00
2018-09-20T19:23:57.513Z,18.80
2018-09-20T19:26:27.333Z,18.50
2018-09-20T19:28:57.435Z,18.50
2018-09-20T19:31:27.709Z,18.40
2018-09-20T19:33:59.127Z,18.40
2018-09-20T19:36:29.081Z,18.50
2018-09-20T19:38:58.900Z,18.50
2018-09-20T19:41:28.750Z,18.50
2018-09-20T19:43:58.853Z,18.50
2018-09-20T19:46:28.632Z,18.30
2018-09-20T19:48:58.601Z,18.10
2018-09-20T19:51:28.290Z,17.90
2018-09-20T19:53:58.189Z,17.70
2018-09-20T19:56:27.981Z,17.60
2018-09-20T19:58:57.878Z,17.50
2018-09-20T20:01:27.668Z,17.40
2018-09-20T20:03:57.669Z,17.20
2018-09-20T20:06:27.493Z,17.10
2018-09-20T20:08:57.328Z,17.10
2018-09-20T20:11:26.903Z,17.10
2018-09-20T20:13:56.445Z,16.90
2018-09-20T20:16:25.926Z,16.80
2018-09-20T20:18:55.532Z,16.70
2018-09-20T20:21:25.139Z,16.60
2018-09-20T20:23:55.176Z,16.70
2018-09-20T20:26:24.946Z,17.00
2018-09-20T20:28:55.248Z,17.50
2018-09-20T20:31:25.255Z,17.70
2018-09-20T20:33:55.365Z,17.70
2018-09-20T20:36:25.507Z,17.60
2018-09-20T20:38:55.512Z,17.60
2018-09-20T20:41:25.675Z,17.60
2018-09-20T20:43:56.168Z,17.70
2018-09-20T20:46:26.009Z,17.70
2018-09-20T20:48:55.704Z,17.60
2018-09-20T20:51:25.567Z,17.50
2018-09-20T20:53:55.192Z,17.40
2018-09-20T20:56:25.215Z,17.20
2018-09-20T20:58:55.443Z,17.00
2018-09-20T21:01:25.591Z,16.80
2018-09-20T21:04:11.434Z,16.50
2018-09-20T21:06:41.589Z,16.30
2018-09-20T21:09:11.156Z,16.10
2018-09-20T21:11:40.513Z,16.00
2018-09-20T21:14:10.099Z,15.90
2018-09-20T21:16:39.652Z,15.80
2018-09-20T21:19:09.296Z,15.70
2018-09-20T21:21:39.058Z,15.60
2018-09-20T21:24:08.757Z,15.50
2018-09-20T21:26:38.722Z,15.40
2018-09-20T21:29:08.310Z,15.40
2018-09-20T21:31:38.135Z,15.30
2018-09-20T21:34:07.933Z,15.30
2018-09-20T21:36:37.271Z,15.40
2018-09-20T21:39:10.172Z,15.40
2018-09-20T21:41:41.085Z,15.40
2018-09-20T21:44:10.639Z,15.50
2018-09-20T21:46:40.384Z,15.60
2018-09-20T21:49:10.376Z,15.80
2018-09-20T21:51:39.745Z,15.80
2018-09-20T21:54:09.329Z,15.80
2018-09-20T21:56:38.993Z,15.70
2018-09-20T21:59:09.105Z,15.70
2018-09-20T22:01:43.965Z,15.60
2018-09-20T22:04:13.744Z,15.40
2018-09-20T22:06:43.883Z,15.30
2018-09-20T22:09:15.211Z,15.20
2018-09-20T22:11:45.490Z,15.20
2018-09-20T22:14:15.240Z,15.10
2018-09-20T22:16:46.062Z,15.10
2018-09-20T22:19:16.232Z,15.10
2018-09-20T22:21:46.009Z,15.10
2018-09-20T22:24:15.809Z,15.10
2018-09-20T22:26:45.558Z,15.00
2018-09-20T22:29:15.333Z,15.00
2018-09-20T22:31:45.120Z,15.00
2018-09-20T22:34:14.915Z,15.10
2018-09-20T22:36:44.645Z,15.40
2018-09-20T22:39:14.317Z,15.50
2018-09-20T22:41:43.776Z,15.60
2018-09-20T22:44:13.463Z,15.80
2018-09-20T22:46:43.542Z,15.90
2018-09-20T22:49:13.801Z,15.90
2018-09-20T22:51:43.509Z,16.00
2018-09-20T22:54:13.241Z,15.90
2018-09-20T22:56:42.836Z,16.10
2018-09-20T22:59:12.639Z,16.10
2018-09-20T23:01:42.532Z,16.20
2018-09-20T23:04:12.086Z,16.20
2018-09-20T23:06:41.860Z,16.00
2018-09-20T23:09:11.994Z,16.00
2018-09-20T23:11:41.900Z,16.10
2018-09-20T23:14:11.808Z,16.10
2018-09-20T23:16:41.656Z,16.20
2018-09-20T23:19:11.335Z,16.50
2018-09-20T23:21:41.002Z,16.60
2018-09-20T23:24:10.551Z,16.70
2018-09-20T23:26:42.003Z,16.90
2018-09-20T23:29:11.622Z,16.80
2018-09-20T23:31:41.275Z,16.80
2018-09-20T23:34:11.105Z,16.60
2018-09-20T23:36:40.847Z,16.50
2018-09-20T23:39:12.438Z,16.50
2018-09-20T23:41:41.942Z,16.40
2018-09-20T23:44:11.756Z,16.30
2018-09-20T23:46:41.292Z,16.30
2018-09-20T23:49:10.947Z,16.50
2018-09-20T23:51:40.572Z,16.70
2018-09-20T23:54:10.208Z,16.80
2018-09-20T23:56:39.806Z,16.90
2018-09-20T23:59:09.744Z,16.90
